sensor_id;sensor_type;location;lat;lon;timestamp;P1;durP1;ratioP1;P2;durP2;ratioP2
22421;SDS011;11378;51.642;7.668;2022-12-18T00:01:36;13.57;;;8.95;;
22421;SDS011;11378;51.642;7.668;2022-12-18T00:04:04;13.95;;;8.57;;
22421;SDS011;11378;51.642;7.668;2022-12-18T00:06:31;13.73;;;9.23;;
22421;SDS011;11378;51.642;7.668;2022-12-18T00:08:58;11.73;;;7.93;;
22421;SDS011;11378;51.642;7.668;2022-12-18T00:11:26;13.18;;;8.73;;
22421;SDS011;11378;51.642;7.668;2022-12-18T00:13:54;13.65;;;9.45;;
22421;SDS011;11378;51.642;7.668;2022-12-18T00:16:21;14.55;;;9.75;;
22421;SDS011;11378;51.642;7.668;2022-12-18T00:18:49;14.93;;;8.85;;
22421;SDS011;11378;51.642;7.668;2022-12-18T00:21:15;12.00;;;8.10;;
22421;SDS011;11378;51.642;7.668;2022-12-18T00:23:42;15.05;;;9.77;;
22421;SDS011;11378;51.642;7.668;2022-12-18T00:26:10;12.85;;;8.85;;
22421;SDS011;11378;51.642;7.668;2022-12-18T00:28:40;14.63;;;9.75;;
22421;SDS011;11378;51.642;7.668;2022-12-18T00:31:08;13.60;;;8.60;;
22421;SDS011;11378;51.642;7.668;2022-12-18T00:33:35;14.63;;;8.88;;
22421;SDS011;11378;51.642;7.668;2022-12-18T00:36:05;14.48;;;8.77;;
22421;SDS011;11378;51.642;7.668;2022-12-18T00:38:32;14.10;;;8.45;;
22421;SDS011;11378;51.642;7.668;2022-12-18T00:40:59;13.05;;;8.35;;
22421;SDS011;11378;51.642;7.668;2022-12-18T00:43:25;14.02;;;8.88;;
22421;SDS011;11378;51.642;7.668;2022-12-18T00:45:52;14.40;;;9.20;;
22421;SDS011;11378;51.642;7.668;2022-12-18T00:48:18;14.30;;;9.00;;
22421;SDS011;11378;51.642;7.668;2022-12-18T00:50:45;14.25;;;8.70;;
22421;SDS011;11378;51.642;7.668;2022-12-18T00:53:11;14.68;;;8.80;;
22421;SDS011;11378;51.642;7.668;2022-12-18T00:55:40;13.55;;;8.48;;
22421;SDS011;11378;51.642;7.668;2022-12-18T00:58:07;17.02;;;9.63;;
22421;SDS011;11378;51.642;7.668;2022-12-18T01:00:34;14.45;;;8.93;;
22421;SDS011;11378;51.642;7.668;2022-12-18T01:03:01;13.90;;;8.35;;
22421;SDS011;11378;51.642;7.668;2022-12-18T01:05:28;11.98;;;8.30;;
22421;SDS011;11378;51.642;7.668;2022-12-18T01:07:55;13.07;;;8.55;;
22421;SDS011;11378;51.642;7.668;2022-12-18T01:10:21;12.85;;;8.43;;
22421;SDS011;11378;51.642;7.668;2022-12-18T01:12:48;13.40;;;9.10;;
22421;SDS011;11378;51.642;7.668;2022-12-18T01:15:17;13.55;;;9.02;;
22421;SDS011;11378;51.642;7.668;2022-12-18T01:17:43;13.65;;;8.80;;
22421;SDS011;11378;51.642;7.668;2022-12-18T01:20:10;14.00;;;8.88;;
22421;SDS011;11378;51.642;7.668;2022-12-18T01:22:37;13.02;;;8.77;;
22421;SDS011;11378;51.642;7.668;2022-12-18T01:25:06;14.25;;;9.23;;
22421;SDS011;11378;51.642;7.668;2022-12-18T01:27:33;14.98;;;9.35;;
22421;SDS011;11378;51.642;7.668;2022-12-18T01:30:02;12.23;;;8.18;;
22421;SDS011;11378;51.642;7.668;2022-12-18T01:32:29;13.13;;;8.23;;
22421;SDS011;11378;51.642;7.668;2022-12-18T01:34:56;14.63;;;8.65;;
22421;SDS011;11378;51.642;7.668;2022-12-18T01:37:22;14.25;;;8.90;;
22421;SDS011;11378;51.642;7.668;2022-12-18T01:39:49;15.73;;;9.38;;
22421;SDS011;11378;51.642;7.668;2022-12-18T01:42:18;14.65;;;9.02;;
22421;SDS011;11378;51.642;7.668;2022-12-18T01:47:39;13.63;;;8.77;;
22421;SDS011;11378;51.642;7.668;2022-12-18T01:50:10;13.50;;;8.38;;
22421;SDS011;11378;51.642;7.668;2022-12-18T01:52:37;15.43;;;9.63;;
22421;SDS011;11378;51.642;7.668;2022-12-18T01:55:07;13.82;;;8.73;;
22421;SDS011;11378;51.642;7.668;2022-12-18T01:57:33;14.07;;;8.95;;
22421;SDS011;11378;51.642;7.668;2022-12-18T02:00:03;14.23;;;8.90;;
22421;SDS011;11378;51.642;7.668;2022-12-18T02:02:42;13.20;;;9.13;;
22421;SDS011;11378;51.642;7.668;2022-12-18T02:05:09;13.50;;;8.27;;
22421;SDS011;11378;51.642;7.668;2022-12-18T02:12:52;14.23;;;9.35;;
22421;SDS011;11378;51.642;7.668;2022-12-18T02:17:54;13.63;;;9.18;;
22421;SDS011;11378;51.642;7.668;2022-12-18T02:20:23;12.82;;;8.55;;
22421;SDS011;11378;51.642;7.668;2022-12-18T02:25:24;9.52;;;6.82;;
22421;SDS011;11378;51.642;7.668;2022-12-18T02:27:52;12.02;;;8.57;;
22421;SDS011;11378;51.642;7.668;2022-12-18T02:30:20;13.65;;;9.15;;
22421;SDS011;11378;51.642;7.668;2022-12-18T02:32:49;13.20;;;8.77;;
22421;SDS011;11378;51.642;7.668;2022-12-18T02:35:19;14.13;;;9.47;;
22421;SDS011;11378;51.642;7.668;2022-12-18T02:37:50;11.80;;;8.05;;
22421;SDS011;11378;51.642;7.668;2022-12-18T02:40:20;13.48;;;8.45;;
22421;SDS011;11378;51.642;7.668;2022-12-18T02:42:47;13.93;;;9.23;;
22421;SDS011;11378;51.642;7.668;2022-12-18T02:45:16;9.83;;;6.57;;
22421;SDS011;11378;51.642;7.668;2022-12-18T02:47:46;15.07;;;8.63;;
22421;SDS011;11378;51.642;7.668;2022-12-18T02:55:34;14.32;;;9.20;;
22421;SDS011;11378;51.642;7.668;2022-12-18T02:58:12;14.43;;;9.77;;
22421;SDS011;11378;51.642;7.668;2022-12-18T03:00:41;14.43;;;8.80;;
22421;SDS011;11378;51.642;7.668;2022-12-18T03:03:11;13.15;;;8.43;;
22421;SDS011;11378;51.642;7.668;2022-12-18T03:05:41;12.52;;;8.75;;
22421;SDS011;11378;51.642;7.668;2022-12-18T03:08:26;13.52;;;9.18;;
22421;SDS011;11378;51.642;7.668;2022-12-18T03:10:58;14.20;;;8.55;;
22421;SDS011;11378;51.642;7.668;2022-12-18T03:16:10;12.80;;;8.50;;
22421;SDS011;11378;51.642;7.668;2022-12-18T03:18:58;13.70;;;9.13;;
22421;SDS011;11378;51.642;7.668;2022-12-18T03:21:26;12.18;;;8.30;;
22421;SDS011;11378;51.642;7.668;2022-12-18T03:23:54;13.18;;;8.77;;
22421;SDS011;11378;51.642;7.668;2022-12-18T03:26:24;11.43;;;8.05;;
22421;SDS011;11378;51.642;7.668;2022-12-18T03:28:57;13.23;;;8.57;;
22421;SDS011;11378;51.642;7.668;2022-12-18T03:33:56;11.65;;;7.95;;
22421;SDS011;11378;51.642;7.668;2022-12-18T03:36:31;9.23;;;6.10;;
22421;SDS011;11378;51.642;7.668;2022-12-18T03:38:58;13.13;;;8.57;;
22421;SDS011;11378;51.642;7.668;2022-12-18T03:44:26;13.55;;;8.75;;
22421;SDS011;11378;51.642;7.668;2022-12-18T03:49:43;11.63;;;8.23;;
22421;SDS011;11378;51.642;7.668;2022-12-18T03:55:08;12.75;;;8.60;;
22421;SDS011;11378;51.642;7.668;2022-12-18T03:57:37;12.95;;;8.45;;
22421;SDS011;11378;51.642;7.668;2022-12-18T04:00:11;13.57;;;8.60;;
22421;SDS011;11378;51.642;7.668;2022-12-18T04:02:53;13.60;;;8.55;;
22421;SDS011;11378;51.642;7.668;2022-12-18T04:05:26;12.25;;;8.57;;
22421;SDS011;11378;51.642;7.668;2022-12-18T04:07:53;15.20;;;9.25;;
22421;SDS011;11378;51.642;7.668;2022-12-18T04:10:21;12.75;;;8.57;;
22421;SDS011;11378;51.642;7.668;2022-12-18T04:12:47;12.50;;;8.25;;
22421;SDS011;11378;51.642;7.668;2022-12-18T04:15:15;14.68;;;8.57;;
22421;SDS011;11378;51.642;7.668;2022-12-18T04:17:48;13.77;;;9.13;;
22421;SDS011;11378;51.642;7.668;2022-12-18T04:20:18;12.82;;;8.15;;
22421;SDS011;11378;51.642;7.668;2022-12-18T04:22:45;11.10;;;8.00;;
22421;SDS011;11378;51.642;7.668;2022-12-18T04:25:12;11.23;;;8.15;;
22421;SDS011;11378;51.642;7.668;2022-12-18T04:27:49;12.15;;;8.68;;
22421;SDS011;11378;51.642;7.668;2022-12-18T04:30:16;12.48;;;8.32;;
22421;SDS011;11378;51.642;7.668;2022-12-18T04:32:43;12.38;;;7.97;;
22421;SDS011;11378;51.642;7.668;2022-12-18T04:35:10;12.88;;;8.30;;
22421;SDS011;11378;51.642;7.668;2022-12-18T04:37:41;12.18;;;8.80;;
22421;SDS011;11378;51.642;7.668;2022-12-18T04:40:07;12.35;;;7.95;;
22421;SDS011;11378;51.642;7.668;2022-12-18T04:42:40;12.70;;;8.45;;
22421;SDS011;11378;51.642;7.668;2022-12-18T04:45:07;13.80;;;9.35;;
22421;SDS011;11378;51.642;7.668;2022-12-18T04:47:33;12.02;;;8.23;;
22421;SDS011;11378;51.642;7.668;2022-12-18T04:50:02;12.10;;;8.13;;
22421;SDS011;11378;51.642;7.668;2022-12-18T04:52:28;10.35;;;8.40;;
22421;SDS011;11378;51.642;7.668;2022-12-18T04:54:58;13.48;;;8.77;;
22421;SDS011;11378;51.642;7.668;2022-12-18T04:57:24;13.85;;;9.13;;
22421;SDS011;11378;51.642;7.668;2022-12-18T04:59:53;13.10;;;8.77;;
22421;SDS011;11378;51.642;7.668;2022-12-18T05:02:19;12.38;;;8.85;;
22421;SDS011;11378;51.642;7.668;2022-12-18T05:04:46;13.05;;;9.05;;
22421;SDS011;11378;51.642;7.668;2022-12-18T05:07:12;11.90;;;8.48;;
22421;SDS011;11378;51.642;7.668;2022-12-18T05:09:39;12.93;;;8.82;;
22421;SDS011;11378;51.642;7.668;2022-12-18T05:12:05;14.15;;;8.15;;
22421;SDS011;11378;51.642;7.668;2022-12-18T05:14:31;12.50;;;8.25;;
22421;SDS011;11378;51.642;7.668;2022-12-18T05:16:58;12.00;;;8.27;;
22421;SDS011;11378;51.642;7.668;2022-12-18T05:19:24;12.75;;;8.43;;
22421;SDS011;11378;51.642;7.668;2022-12-18T05:21:50;10.23;;;7.80;;
22421;SDS011;11378;51.642;7.668;2022-12-18T05:24:17;12.52;;;8.68;;
22421;SDS011;11378;51.642;7.668;2022-12-18T05:26:43;11.82;;;8.18;;
22421;SDS011;11378;51.642;7.668;2022-12-18T05:29:10;11.98;;;8.35;;
22421;SDS011;11378;51.642;7.668;2022-12-18T05:31:37;13.07;;;8.07;;
22421;SDS011;11378;51.642;7.668;2022-12-18T05:34:04;12.30;;;8.07;;
22421;SDS011;11378;51.642;7.668;2022-12-18T05:36:31;12.80;;;8.60;;
22421;SDS011;11378;51.642;7.668;2022-12-18T05:38:57;13.82;;;8.27;;
22421;SDS011;11378;51.642;7.668;2022-12-18T05:41:25;10.82;;;7.78;;
22421;SDS011;11378;51.642;7.668;2022-12-18T05:43:52;11.40;;;8.30;;
22421;SDS011;11378;51.642;7.668;2022-12-18T05:46:18;12.02;;;8.63;;
22421;SDS011;11378;51.642;7.668;2022-12-18T05:48:45;11.68;;;7.25;;
22421;SDS011;11378;51.642;7.668;2022-12-18T05:51:13;12.52;;;8.73;;
22421;SDS011;11378;51.642;7.668;2022-12-18T05:53:40;11.82;;;8.10;;
22421;SDS011;11378;51.642;7.668;2022-12-18T05:56:08;11.27;;;8.35;;
22421;SDS011;11378;51.642;7.668;2022-12-18T05:58:34;13.23;;;8.52;;
22421;SDS011;11378;51.642;7.668;2022-12-18T06:01:17;11.75;;;8.35;;
22421;SDS011;11378;51.642;7.668;2022-12-18T06:03:44;13.35;;;8.38;;
22421;SDS011;11378;51.642;7.668;2022-12-18T06:06:15;12.18;;;8.13;;
22421;SDS011;11378;51.642;7.668;2022-12-18T06:08:41;10.70;;;8.07;;
22421;SDS011;11378;51.642;7.668;2022-12-18T06:11:08;12.20;;;8.68;;
22421;SDS011;11378;51.642;7.668;2022-12-18T06:13:34;12.88;;;8.93;;
22421;SDS011;11378;51.642;7.668;2022-12-18T06:16:04;11.85;;;8.00;;
22421;SDS011;11378;51.642;7.668;2022-12-18T06:20:57;10.50;;;7.68;;
22421;SDS011;11378;51.642;7.668;2022-12-18T06:23:24;11.90;;;8.25;;
22421;SDS011;11378;51.642;7.668;2022-12-18T06:25:51;10.65;;;8.00;;
22421;SDS011;11378;51.642;7.668;2022-12-18T06:28:17;12.02;;;8.10;;
22421;SDS011;11378;51.642;7.668;2022-12-18T06:30:44;11.60;;;8.30;;
22421;SDS011;11378;51.642;7.668;2022-12-18T06:33:11;11.77;;;7.75;;
22421;SDS011;11378;51.642;7.668;2022-12-18T06:35:37;12.82;;;8.50;;
22421;SDS011;11378;51.642;7.668;2022-12-18T06:38:03;13.27;;;8.50;;
22421;SDS011;11378;51.642;7.668;2022-12-18T06:40:29;14.45;;;8.23;;
22421;SDS011;11378;51.642;7.668;2022-12-18T06:42:58;13.25;;;8.52;;
22421;SDS011;11378;51.642;7.668;2022-12-18T06:45:25;12.30;;;8.30;;
22421;SDS011;11378;51.642;7.668;2022-12-18T06:47:51;16.17;;;9.35;;
22421;SDS011;11378;51.642;7.668;2022-12-18T06:50:17;12.95;;;8.60;;
22421;SDS011;11378;51.642;7.668;2022-12-18T06:52:43;14.60;;;8.93;;
22421;SDS011;11378;51.642;7.668;2022-12-18T06:55:10;12.95;;;8.73;;
22421;SDS011;11378;51.642;7.668;2022-12-18T06:57:37;13.52;;;8.82;;
22421;SDS011;11378;51.642;7.668;2022-12-18T07:00:04;14.13;;;9.55;;
22421;SDS011;11378;51.642;7.668;2022-12-18T07:02:31;13.40;;;9.00;;
22421;SDS011;11378;51.642;7.668;2022-12-18T07:04:58;14.93;;;9.13;;
22421;SDS011;11378;51.642;7.668;2022-12-18T07:07:24;13.25;;;8.80;;
22421;SDS011;11378;51.642;7.668;2022-12-18T07:09:51;13.27;;;8.88;;
22421;SDS011;11378;51.642;7.668;2022-12-18T07:12:17;11.85;;;8.38;;
22421;SDS011;11378;51.642;7.668;2022-12-18T07:14:44;13.93;;;8.93;;
22421;SDS011;11378;51.642;7.668;2022-12-18T07:17:10;12.98;;;8.50;;
22421;SDS011;11378;51.642;7.668;2022-12-18T07:19:36;13.30;;;8.68;;
22421;SDS011;11378;51.642;7.668;2022-12-18T07:22:03;13.07;;;8.73;;
22421;SDS011;11378;51.642;7.668;2022-12-18T07:24:29;14.93;;;9.38;;
22421;SDS011;11378;51.642;7.668;2022-12-18T07:26:56;11.85;;;8.40;;
22421;SDS011;11378;51.642;7.668;2022-12-18T07:29:22;13.65;;;9.13;;
22421;SDS011;11378;51.642;7.668;2022-12-18T07:31:49;12.13;;;8.88;;
22421;SDS011;11378;51.642;7.668;2022-12-18T07:34:15;12.13;;;8.65;;
22421;SDS011;11378;51.642;7.668;2022-12-18T07:36:42;13.30;;;8.95;;
22421;SDS011;11378;51.642;7.668;2022-12-18T07:39:08;12.77;;;8.70;;
22421;SDS011;11378;51.642;7.668;2022-12-18T07:41:34;15.57;;;8.55;;
22421;SDS011;11378;51.642;7.668;2022-12-18T07:44:10;13.60;;;8.73;;
22421;SDS011;11378;51.642;7.668;2022-12-18T07:46:37;12.35;;;8.40;;
22421;SDS011;11378;51.642;7.668;2022-12-18T07:49:03;11.80;;;8.02;;
22421;SDS011;11378;51.642;7.668;2022-12-18T07:51:29;12.90;;;8.73;;
22421;SDS011;11378;51.642;7.668;2022-12-18T07:53:56;13.38;;;8.80;;
22421;SDS011;11378;51.642;7.668;2022-12-18T07:56:22;13.57;;;9.20;;
22421;SDS011;11378;51.642;7.668;2022-12-18T07:58:49;12.32;;;8.02;;
22421;SDS011;11378;51.642;7.668;2022-12-18T08:01:15;13.00;;;8.23;;
22421;SDS011;11378;51.642;7.668;2022-12-18T08:03:42;11.73;;;8.27;;
22421;SDS011;11378;51.642;7.668;2022-12-18T08:06:09;11.80;;;7.93;;
22421;SDS011;11378;51.642;7.668;2022-12-18T08:08:35;13.38;;;8.73;;
22421;SDS011;11378;51.642;7.668;2022-12-18T08:11:02;13.18;;;8.15;;
22421;SDS011;11378;51.642;7.668;2022-12-18T08:13:28;12.23;;;8.40;;
22421;SDS011;11378;51.642;7.668;2022-12-18T08:15:59;11.02;;;8.02;;
22421;SDS011;11378;51.642;7.668;2022-12-18T08:18:25;12.23;;;7.82;;
22421;SDS011;11378;51.642;7.668;2022-12-18T08:20:52;12.70;;;7.75;;
22421;SDS011;11378;51.642;7.668;2022-12-18T08:23:18;12.27;;;8.20;;
22421;SDS011;11378;51.642;7.668;2022-12-18T08:25:45;15.20;;;9.77;;
22421;SDS011;11378;51.642;7.668;2022-12-18T08:28:11;13.05;;;8.68;;
22421;SDS011;11378;51.642;7.668;2022-12-18T08:30:38;13.07;;;8.55;;
22421;SDS011;11378;51.642;7.668;2022-12-18T08:33:04;13.93;;;9.30;;
22421;SDS011;11378;51.642;7.668;2022-12-18T08:35:34;13.48;;;8.57;;
22421;SDS011;11378;51.642;7.668;2022-12-18T08:38:01;13.40;;;8.90;;
22421;SDS011;11378;51.642;7.668;2022-12-18T08:40:27;13.23;;;8.68;;
22421;SDS011;11378;51.642;7.668;2022-12-18T08:42:54;15.25;;;9.63;;
22421;SDS011;11378;51.642;7.668;2022-12-18T08:45:39;13.10;;;8.40;;
22421;SDS011;11378;51.642;7.668;2022-12-18T08:48:05;14.85;;;8.57;;
22421;SDS011;11378;51.642;7.668;2022-12-18T08:50:32;13.35;;;8.52;;
22421;SDS011;11378;51.642;7.668;2022-12-18T08:52:58;14.32;;;8.10;;
22421;SDS011;11378;51.642;7.668;2022-12-18T08:55:24;13.05;;;8.82;;
22421;SDS011;11378;51.642;7.668;2022-12-18T08:57:51;12.73;;;8.50;;
22421;SDS011;11378;51.642;7.668;2022-12-18T09:00:17;13.55;;;8.30;;
22421;SDS011;11378;51.642;7.668;2022-12-18T09:02:43;13.98;;;8.68;;
22421;SDS011;11378;51.642;7.668;2022-12-18T09:05:10;13.05;;;8.40;;
22421;SDS011;11378;51.642;7.668;2022-12-18T09:07:36;12.98;;;8.85;;
22421;SDS011;11378;51.642;7.668;2022-12-18T09:10:03;12.63;;;7.82;;
22421;SDS011;11378;51.642;7.668;2022-12-18T09:12:29;12.82;;;8.82;;
22421;SDS011;11378;51.642;7.668;2022-12-18T09:14:56;11.60;;;8.05;;
22421;SDS011;11378;51.642;7.668;2022-12-18T09:17:23;12.48;;;8.15;;
22421;SDS011;11378;51.642;7.668;2022-12-18T09:19:49;14.23;;;7.90;;
22421;SDS011;11378;51.642;7.668;2022-12-18T09:22:16;13.88;;;8.80;;
22421;SDS011;11378;51.642;7.668;2022-12-18T09:24:42;14.75;;;8.77;;
22421;SDS011;11378;51.642;7.668;2022-12-18T09:27:09;12.90;;;8.60;;
22421;SDS011;11378;51.642;7.668;2022-12-18T09:29:35;13.23;;;8.30;;
22421;SDS011;11378;51.642;7.668;2022-12-18T09:32:01;12.48;;;7.72;;
22421;SDS011;11378;51.642;7.668;2022-12-18T09:34:28;10.52;;;7.22;;
22421;SDS011;11378;51.642;7.668;2022-12-18T09:36:54;11.52;;;7.90;;
22421;SDS011;11378;51.642;7.668;2022-12-18T09:39:20;11.73;;;7.55;;
22421;SDS011;11378;51.642;7.668;2022-12-18T09:41:56;11.38;;;7.10;;
22421;SDS011;11378;51.642;7.668;2022-12-18T09:46:52;12.90;;;7.97;;
22421;SDS011;11378;51.642;7.668;2022-12-18T09:49:20;11.73;;;7.50;;
22421;SDS011;11378;51.642;7.668;2022-12-18T09:51:52;12.40;;;7.43;;
22421;SDS011;11378;51.642;7.668;2022-12-18T09:54:25;11.38;;;7.15;;
22421;SDS011;11378;51.642;7.668;2022-12-18T09:56:51;14.32;;;7.13;;
22421;SDS011;11378;51.642;7.668;2022-12-18T09:59:23;10.57;;;7.05;;
22421;SDS011;11378;51.642;7.668;2022-12-18T10:01:50;10.70;;;7.05;;
22421;SDS011;11378;51.642;7.668;2022-12-18T10:04:17;10.98;;;7.43;;
22421;SDS011;11378;51.642;7.668;2022-12-18T10:06:55;10.30;;;6.68;;
22421;SDS011;11378;51.642;7.668;2022-12-18T10:19:35;11.30;;;6.90;;
22421;SDS011;11378;51.642;7.668;2022-12-18T10:24:48;10.32;;;6.22;;
22421;SDS011;11378;51.642;7.668;2022-12-18T10:27:18;10.70;;;7.00;;
22421;SDS011;11378;51.642;7.668;2022-12-18T10:29:44;10.15;;;6.68;;
22421;SDS011;11378;51.642;7.668;2022-12-18T10:32:18;9.75;;;6.15;;
22421;SDS011;11378;51.642;7.668;2022-12-18T10:34:46;8.63;;;6.38;;
22421;SDS011;11378;51.642;7.668;2022-12-18T10:37:17;8.43;;;6.13;;
22421;SDS011;11378;51.642;7.668;2022-12-18T10:39:45;11.45;;;6.72;;
22421;SDS011;11378;51.642;7.668;2022-12-18T10:42:16;8.93;;;5.80;;
22421;SDS011;11378;51.642;7.668;2022-12-18T10:44:42;9.63;;;6.07;;
22421;SDS011;11378;51.642;7.668;2022-12-18T10:47:14;10.68;;;5.65;;
22421;SDS011;11378;51.642;7.668;2022-12-18T10:49:48;12.05;;;6.43;;
22421;SDS011;11378;51.642;7.668;2022-12-18T10:52:17;8.77;;;6.00;;
22421;SDS011;11378;51.642;7.668;2022-12-18T10:54:48;8.73;;;5.87;;
22421;SDS011;11378;51.642;7.668;2022-12-18T10:57:16;8.38;;;5.63;;
22421;SDS011;11378;51.642;7.668;2022-12-18T10:59:50;10.35;;;5.53;;
22421;SDS011;11378;51.642;7.668;2022-12-18T11:02:25;8.60;;;5.70;;
22421;SDS011;11378;51.642;7.668;2022-12-18T11:04:52;8.38;;;5.63;;
22421;SDS011;11378;51.642;7.668;2022-12-18T11:07:19;9.48;;;5.97;;
22421;SDS011;11378;51.642;7.668;2022-12-18T11:09:45;8.40;;;5.63;;
22421;SDS011;11378;51.642;7.668;2022-12-18T11:12:28;8.52;;;5.72;;
22421;SDS011;11378;51.642;7.668;2022-12-18T11:14:55;8.77;;;5.93;;
22421;SDS011;11378;51.642;7.668;2022-12-18T11:17:29;9.05;;;5.40;;
22421;SDS011;11378;51.642;7.668;2022-12-18T11:19:59;8.30;;;5.68;;
22421;SDS011;11378;51.642;7.668;2022-12-18T11:22:27;7.50;;;5.43;;
22421;SDS011;11378;51.642;7.668;2022-12-18T11:24:58;8.93;;;5.50;;
22421;SDS011;11378;51.642;7.668;2022-12-18T11:27:25;7.85;;;5.68;;
22421;SDS011;11378;51.642;7.668;2022-12-18T11:29:52;7.35;;;5.45;;
22421;SDS011;11378;51.642;7.668;2022-12-18T11:34:59;8.55;;;5.85;;
22421;SDS011;11378;51.642;7.668;2022-12-18T11:37:27;7.60;;;5.03;;
22421;SDS011;11378;51.642;7.668;2022-12-18T11:40:09;7.43;;;5.30;;
22421;SDS011;11378;51.642;7.668;2022-12-18T11:45:52;7.85;;;5.25;;
22421;SDS011;11378;51.642;7.668;2022-12-18T11:50:56;10.05;;;5.95;;
22421;SDS011;11378;51.642;7.668;2022-12-18T11:53:23;8.45;;;5.30;;
22421;SDS011;11378;51.642;7.668;2022-12-18T11:58:33;8.63;;;5.20;;
22421;SDS011;11378;51.642;7.668;2022-12-18T12:06:32;6.90;;;5.28;;
22421;SDS011;11378;51.642;7.668;2022-12-18T12:11:49;6.93;;;4.45;;
22421;SDS011;11378;51.642;7.668;2022-12-18T12:16:51;7.72;;;4.90;;
22421;SDS011;11378;51.642;7.668;2022-12-18T12:19:25;6.95;;;4.45;;
22421;SDS011;11378;51.642;7.668;2022-12-18T12:24:43;5.85;;;4.10;;
22421;SDS011;11378;51.642;7.668;2022-12-18T12:32:22;7.10;;;4.97;;
22421;SDS011;11378;51.642;7.668;2022-12-18T12:40:00;7.45;;;4.72;;
22421;SDS011;11378;51.642;7.668;2022-12-18T12:42:31;6.63;;;4.43;;
22421;SDS011;11378;51.642;7.668;2022-12-18T12:45:59;6.43;;;4.50;;
22421;SDS011;11378;51.642;7.668;2022-12-18T12:48:10;5.47;;;4.07;;
22421;SDS011;11378;51.642;7.668;2022-12-18T12:50:40;6.40;;;4.30;;
22421;SDS011;11378;51.642;7.668;2022-12-18T12:53:07;5.65;;;3.85;;
22421;SDS011;11378;51.642;7.668;2022-12-18T12:55:34;6.57;;;4.40;;
22421;SDS011;11378;51.642;7.668;2022-12-18T13:00:52;6.18;;;4.10;;
22421;SDS011;11378;51.642;7.668;2022-12-18T13:03:27;5.95;;;3.80;;
22421;SDS011;11378;51.642;7.668;2022-12-18T13:06:00;6.13;;;3.92;;
22421;SDS011;11378;51.642;7.668;2022-12-18T13:08:30;6.25;;;4.20;;
22421;SDS011;11378;51.642;7.668;2022-12-18T13:10:57;6.40;;;4.20;;
22421;SDS011;11378;51.642;7.668;2022-12-18T13:13:52;5.70;;;4.10;;
22421;SDS011;11378;51.642;7.668;2022-12-18T13:16:20;6.28;;;4.43;;
22421;SDS011;11378;51.642;7.668;2022-12-18T13:18:50;5.75;;;3.92;;
22421;SDS011;11378;51.642;7.668;2022-12-18T13:21:24;6.40;;;3.88;;
22421;SDS011;11378;51.642;7.668;2022-12-18T13:23:52;5.82;;;4.05;;
22421;SDS011;11378;51.642;7.668;2022-12-18T13:31:12;6.45;;;4.28;;
22421;SDS011;11378;51.642;7.668;2022-12-18T13:33:40;5.80;;;3.95;;
22421;SDS011;11378;51.642;7.668;2022-12-18T13:41:34;6.20;;;4.00;;
22421;SDS011;11378;51.642;7.668;2022-12-18T13:46:46;6.72;;;3.72;;
22421;SDS011;11378;51.642;7.668;2022-12-18T13:51:40;5.47;;;3.78;;
22421;SDS011;11378;51.642;7.668;2022-12-18T13:54:18;5.40;;;3.67;;
22421;SDS011;11378;51.642;7.668;2022-12-18T13:56:45;5.18;;;3.60;;
22421;SDS011;11378;51.642;7.668;2022-12-18T13:59:17;5.88;;;3.83;;
22421;SDS011;11378;51.642;7.668;2022-12-18T14:01:45;5.82;;;4.07;;
22421;SDS011;11378;51.642;7.668;2022-12-18T14:04:20;5.18;;;3.58;;
22421;SDS011;11378;51.642;7.668;2022-12-18T14:06:47;5.45;;;3.85;;
22421;SDS011;11378;51.642;7.668;2022-12-18T14:09:15;4.78;;;3.38;;
22421;SDS011;11378;51.642;7.668;2022-12-18T14:11:47;6.05;;;3.70;;
22421;SDS011;11378;51.642;7.668;2022-12-18T14:14:15;5.97;;;3.78;;
22421;SDS011;11378;51.642;7.668;2022-12-18T14:16:42;5.30;;;3.47;;
22421;SDS011;11378;51.642;7.668;2022-12-18T14:19:12;4.85;;;3.60;;
22421;SDS011;11378;51.642;7.668;2022-12-18T14:21:40;5.97;;;3.70;;
22421;SDS011;11378;51.642;7.668;2022-12-18T14:24:39;5.70;;;4.00;;
22421;SDS011;11378;51.642;7.668;2022-12-18T14:27:11;5.50;;;3.58;;
22421;SDS011;11378;51.642;7.668;2022-12-18T14:29:39;4.20;;;3.38;;
22421;SDS011;11378;51.642;7.668;2022-12-18T14:32:10;6.10;;;3.63;;
22421;SDS011;11378;51.642;7.668;2022-12-18T14:34:39;6.45;;;4.60;;
22421;SDS011;11378;51.642;7.668;2022-12-18T14:37:05;7.47;;;3.78;;
22421;SDS011;11378;51.642;7.668;2022-12-18T14:39:32;6.38;;;3.88;;
22421;SDS011;11378;51.642;7.668;2022-12-18T14:41:58;12.18;;;4.15;;
22421;SDS011;11378;51.642;7.668;2022-12-18T14:44:25;11.70;;;4.68;;
22421;SDS011;11378;51.642;7.668;2022-12-18T14:46:51;15.45;;;7.90;;
22421;SDS011;11378;51.642;7.668;2022-12-18T14:51:57;21.75;;;8.70;;
22421;SDS011;11378;51.642;7.668;2022-12-18T14:54:39;11.77;;;7.20;;
22421;SDS011;11378;51.642;7.668;2022-12-18T14:57:13;15.40;;;8.45;;
22421;SDS011;11378;51.642;7.668;2022-12-18T14:59:43;14.40;;;8.07;;
22421;SDS011;11378;51.642;7.668;2022-12-18T15:04:37;12.88;;;8.07;;
22421;SDS011;11378;51.642;7.668;2022-12-18T15:09:34;14.88;;;8.27;;
22421;SDS011;11378;51.642;7.668;2022-12-18T15:12:01;13.15;;;7.40;;
22421;SDS011;11378;51.642;7.668;2022-12-18T15:14:34;14.55;;;8.02;;
22421;SDS011;11378;51.642;7.668;2022-12-18T15:20:00;12.45;;;7.63;;
22421;SDS011;11378;51.642;7.668;2022-12-18T15:22:28;14.45;;;6.97;;
22421;SDS011;11378;51.642;7.668;2022-12-18T15:24:56;14.18;;;8.02;;
22421;SDS011;11378;51.642;7.668;2022-12-18T15:27:24;12.20;;;7.45;;
22421;SDS011;11378;51.642;7.668;2022-12-18T15:32:26;11.77;;;7.68;;
22421;SDS011;11378;51.642;7.668;2022-12-18T15:37:34;10.57;;;6.40;;
22421;SDS011;11378;51.642;7.668;2022-12-18T15:40:01;13.30;;;7.45;;
22421;SDS011;11378;51.642;7.668;2022-12-18T15:42:28;15.23;;;7.32;;
22421;SDS011;11378;51.642;7.668;2022-12-18T15:45:13;10.88;;;7.50;;
22421;SDS011;11378;51.642;7.668;2022-12-18T15:47:39;11.57;;;6.95;;
22421;SDS011;11378;51.642;7.668;2022-12-18T15:50:09;10.77;;;6.97;;
22421;SDS011;11378;51.642;7.668;2022-12-18T15:52:42;9.45;;;6.78;;
22421;SDS011;11378;51.642;7.668;2022-12-18T15:55:19;14.05;;;7.20;;
22421;SDS011;11378;51.642;7.668;2022-12-18T15:58:04;11.82;;;7.60;;
22421;SDS011;11378;51.642;7.668;2022-12-18T16:00:31;17.73;;;7.22;;
22421;SDS011;11378;51.642;7.668;2022-12-18T16:02:58;15.38;;;7.38;;
22421;SDS011;11378;51.642;7.668;2022-12-18T16:05:25;15.15;;;7.30;;
22421;SDS011;11378;51.642;7.668;2022-12-18T16:07:52;10.07;;;7.00;;
22421;SDS011;11378;51.642;7.668;2022-12-18T16:10:18;11.45;;;7.10;;
22421;SDS011;11378;51.642;7.668;2022-12-18T16:12:45;12.07;;;6.82;;
22421;SDS011;11378;51.642;7.668;2022-12-18T16:15:14;12.55;;;6.57;;
22421;SDS011;11378;51.642;7.668;2022-12-18T16:20:15;12.48;;;6.65;;
22421;SDS011;11378;51.642;7.668;2022-12-18T16:22:42;8.85;;;6.50;;
22421;SDS011;11378;51.642;7.668;2022-12-18T16:25:18;10.27;;;6.65;;
22421;SDS011;11378;51.642;7.668;2022-12-18T16:27:48;11.05;;;6.90;;
22421;SDS011;11378;51.642;7.668;2022-12-18T16:30:19;9.63;;;6.45;;
22421;SDS011;11378;51.642;7.668;2022-12-18T16:32:46;9.35;;;6.45;;
22421;SDS011;11378;51.642;7.668;2022-12-18T16:35:13;7.32;;;6.18;;
22421;SDS011;11378;51.642;7.668;2022-12-18T16:37:40;9.60;;;6.85;;
22421;SDS011;11378;51.642;7.668;2022-12-18T16:40:07;7.88;;;6.22;;
22421;SDS011;11378;51.642;7.668;2022-12-18T16:42:38;9.85;;;6.30;;
22421;SDS011;11378;51.642;7.668;2022-12-18T16:45:05;9.25;;;6.75;;
22421;SDS011;11378;51.642;7.668;2022-12-18T16:47:33;9.05;;;6.60;;
22421;SDS011;11378;51.642;7.668;2022-12-18T16:49:59;11.02;;;6.63;;